Overview Statistics Trail Chart Weather Telemetry Raw packets
 

This is the latest recevied weather packets stored in our database for station/object KB9YVI-11. If no packets are shown the sender has not sent any weather packets the latest 10 day(s).

<< 5 6 7 8 9 10 11 >>
Time Temp. Humidity Pressure Rain* Wind** Luminosity Snow
1788568604 28.89° C 100% 0 hPa 0 mm - - -
1788568304 28.89° C 100% 0 hPa 0 mm - - -
1788568004 29.44° C 99% 0 hPa 0 mm - - -
1788567703 29.44° C 99% 0 hPa 0 mm - - -
1788567405 30° C 98% 0 hPa 0 mm - - -
1788567105 30° C 98% 0 hPa 0 mm - - -
1788566505 31.11° C 96% 0 hPa 0 mm - - -
1788565905 31.67° C 95% 0 hPa 0 mm - - -
1788565305 32.22° C 91% 0 hPa 0 mm - - -
1788564705 33.89° C 81% 0 hPa 0 mm - - -
1788564405 34.44° C 79% 0 hPa 0 mm - - -
1788564103 35° C 77% 0 hPa 0 mm - - -
1788563805 35.56° C 75% 0 hPa 0 mm - - -
1788563506 35.56° C 73% 0 hPa 0 mm - - -
1788563205 35.56° C 72% 0 hPa 0 mm - - -
1788562905 35.56° C 70% 0 hPa 0 mm - - -
1788562605 36.11° C 70% 0 hPa 0 mm - - -
1788562306 36.11° C 70% 0 hPa 0 mm - - -
1788562006 36.11° C 71% 0 hPa 0 mm - - -
1788561405 36.11° C 70% 0 hPa 0 mm - - -
1788561105 36.11° C 69% 0 hPa 0 mm - - -
1788560805 36.11° C 70% 0 hPa 0 mm - - -
1788560504 36.11° C 69% 0 hPa 0 mm - - -
1788558106 35.56° C 69% 0 hPa 0 mm - - -
1788557805 35.56° C 69% 0 hPa 0 mm - - -

* Rain latest hour (hover to see other rain measurements)
** Current wind speed in m/s (hover to see current wind gust speed)